CheckWX is a tool to help pilots better visualize weather data.  It is not intended as a substitute for an official pre-flight weather briefing.

06:50:32 UTC

OETR TAF
Turaif Domestic Airport
Saudi Arabia
TAF OETR 041100Z 0412/0518 17015KT CAVOK BECMG 0418/0420 29008KT BECMG 0506/0508 19010KT BECMG 0513/0515 31012KT

Jul-4@
12:00 UTC

Jul-4 @ 12:00 UTC

Jul-4@
18:00 UTC

Jul-4 @ 18:00 UTC

TAF OETR 041100Z 0412/0518 17015KT CAVOK

Expired

Wind
  • 170° at 15 KTS
Conditions
No significant weather
Cloud Levels
  • No significant clouds

Jul-4@
18:00 UTC

Jul-4 @ 18:00 UTC

Jul-5@
06:00 UTC

Jul-5 @ 06:00 UTC

BECMG 0418/0420 29008KT

Expired

Wind
  • 290° at 8 KTS
Conditions
No significant weather
Cloud Levels
  • No significant clouds

Jul-5@
06:00 UTC

Jul-5 @ 06:00 UTC

Jul-5@
13:00 UTC

Jul-5 @ 13:00 UTC

BECMG 0506/0508 19010KT

Becoming

Becoming Conditions expected by Sun, Jul 5, 2020 @ 08:00 UTC

Wind
  • 190° at 10 KTS
Conditions
No significant weather
Cloud Levels
  • No significant clouds

Jul-5@
13:00 UTC

Jul-5 @ 13:00 UTC

Jul-5@
18:00 UTC

Jul-5 @ 18:00 UTC

BECMG 0513/0515 31012KT

Becoming

Becoming Conditions expected by Sun, Jul 5, 2020 @ 15:00 UTC

Wind
  • 310° at 12 KTS
Conditions
No significant weather
Cloud Levels
  • No significant clouds